sensor_id;sensor_type;location;lat;lon;timestamp;P1;durP1;ratioP1;P2;durP2;ratioP2
28988;SDS011;16089;59.952;10.818;2023-03-12T00:02:25;2.25;;;0.35;;
28988;SDS011;16089;59.952;10.818;2023-03-12T00:04:51;1.45;;;0.40;;
28988;SDS011;16089;59.952;10.818;2023-03-12T00:07:18;2.92;;;0.40;;
28988;SDS011;16089;59.952;10.818;2023-03-12T00:09:46;0.55;;;0.30;;
28988;SDS011;16089;59.952;10.818;2023-03-12T00:12:12;1.23;;;0.40;;
28988;SDS011;16089;59.952;10.818;2023-03-12T00:14:39;1.73;;;0.35;;
28988;SDS011;16089;59.952;10.818;2023-03-12T00:17:05;0.88;;;0.32;;
28988;SDS011;16089;59.952;10.818;2023-03-12T00:19:32;1.00;;;0.30;;
28988;SDS011;16089;59.952;10.818;2023-03-12T00:21:58;4.93;;;0.40;;
28988;SDS011;16089;59.952;10.818;2023-03-12T00:24:25;1.77;;;0.50;;
28988;SDS011;16089;59.952;10.818;2023-03-12T00:26:53;1.27;;;0.47;;
28988;SDS011;16089;59.952;10.818;2023-03-12T00:29:19;1.17;;;0.40;;
28988;SDS011;16089;59.952;10.818;2023-03-12T00:31:45;0.65;;;0.25;;
28988;SDS011;16089;59.952;10.818;2023-03-12T00:34:12;0.80;;;0.30;;
28988;SDS011;16089;59.952;10.818;2023-03-12T00:36:38;1.75;;;0.63;;
28988;SDS011;16089;59.952;10.818;2023-03-12T00:39:05;1.05;;;0.38;;
28988;SDS011;16089;59.952;10.818;2023-03-12T00:41:31;1.42;;;0.40;;
28988;SDS011;16089;59.952;10.818;2023-03-12T00:43:59;1.08;;;0.38;;
28988;SDS011;16089;59.952;10.818;2023-03-12T00:46:26;1.65;;;0.20;;
28988;SDS011;16089;59.952;10.818;2023-03-12T00:48:52;0.45;;;0.38;;
28988;SDS011;16089;59.952;10.818;2023-03-12T00:51:19;1.30;;;0.45;;
28988;SDS011;16089;59.952;10.818;2023-03-12T00:53:45;8.48;;;0.75;;
28988;SDS011;16089;59.952;10.818;2023-03-12T00:56:11;3.15;;;0.30;;
28988;SDS011;16089;59.952;10.818;2023-03-12T00:58:38;0.85;;;0.30;;
28988;SDS011;16089;59.952;10.818;2023-03-12T01:01:08;1.95;;;0.90;;
28988;SDS011;16089;59.952;10.818;2023-03-12T01:03:34;0.57;;;0.30;;
28988;SDS011;16089;59.952;10.818;2023-03-12T01:06:00;0.57;;;0.20;;
28988;SDS011;16089;59.952;10.818;2023-03-12T01:08:27;1.08;;;0.32;;
28988;SDS011;16089;59.952;10.818;2023-03-12T01:10:54;0.73;;;0.60;;
28988;SDS011;16089;59.952;10.818;2023-03-12T01:13:20;0.25;;;0.25;;
28988;SDS011;16089;59.952;10.818;2023-03-12T01:15:47;1.25;;;0.40;;
28988;SDS011;16089;59.952;10.818;2023-03-12T01:18:14;0.68;;;0.30;;
28988;SDS011;16089;59.952;10.818;2023-03-12T01:20:41;0.63;;;0.43;;
28988;SDS011;16089;59.952;10.818;2023-03-12T01:23:07;2.03;;;0.30;;
28988;SDS011;16089;59.952;10.818;2023-03-12T01:25:34;1.75;;;0.45;;
28988;SDS011;16089;59.952;10.818;2023-03-12T01:28:00;1.27;;;0.47;;
28988;SDS011;16089;59.952;10.818;2023-03-12T01:30:27;2.10;;;0.40;;
28988;SDS011;16089;59.952;10.818;2023-03-12T01:32:53;0.38;;;0.20;;
28988;SDS011;16089;59.952;10.818;2023-03-12T01:35:21;1.13;;;0.30;;
28988;SDS011;16089;59.952;10.818;2023-03-12T01:37:47;1.00;;;0.20;;
28988;SDS011;16089;59.952;10.818;2023-03-12T01:40:14;1.30;;;0.55;;
28988;SDS011;16089;59.952;10.818;2023-03-12T01:42:41;2.80;;;0.40;;
28988;SDS011;16089;59.952;10.818;2023-03-12T01:47:51;0.65;;;0.30;;
28988;SDS011;16089;59.952;10.818;2023-03-12T01:50:17;0.63;;;0.32;;
28988;SDS011;16089;59.952;10.818;2023-03-12T01:52:45;3.17;;;0.32;;
28988;SDS011;16089;59.952;10.818;2023-03-12T01:55:12;1.08;;;0.40;;
28988;SDS011;16089;59.952;10.818;2023-03-12T01:57:40;4.47;;;0.47;;
28988;SDS011;16089;59.952;10.818;2023-03-12T02:00:08;1.65;;;0.30;;
28988;SDS011;16089;59.952;10.818;2023-03-12T02:02:36;3.75;;;0.40;;
28988;SDS011;16089;59.952;10.818;2023-03-12T02:05:04;0.90;;;0.30;;
28988;SDS011;16089;59.952;10.818;2023-03-12T02:07:32;2.67;;;0.52;;
28988;SDS011;16089;59.952;10.818;2023-03-12T02:10:00;1.35;;;0.30;;
28988;SDS011;16089;59.952;10.818;2023-03-12T02:12:27;2.92;;;0.43;;
28988;SDS011;16089;59.952;10.818;2023-03-12T02:14:53;1.50;;;0.20;;
28988;SDS011;16089;59.952;10.818;2023-03-12T02:17:19;0.43;;;0.22;;
28988;SDS011;16089;59.952;10.818;2023-03-12T02:19:47;3.05;;;0.30;;
28988;SDS011;16089;59.952;10.818;2023-03-12T02:22:14;1.52;;;0.30;;
28988;SDS011;16089;59.952;10.818;2023-03-12T02:24:42;1.75;;;0.40;;
28988;SDS011;16089;59.952;10.818;2023-03-12T02:27:11;0.43;;;0.20;;
28988;SDS011;16089;59.952;10.818;2023-03-12T02:29:40;0.55;;;0.25;;
28988;SDS011;16089;59.952;10.818;2023-03-12T02:32:07;0.50;;;0.50;;
28988;SDS011;16089;59.952;10.818;2023-03-12T02:34:33;0.85;;;0.40;;
28988;SDS011;16089;59.952;10.818;2023-03-12T02:37:00;1.25;;;0.30;;
28988;SDS011;16089;59.952;10.818;2023-03-12T02:39:27;0.28;;;0.20;;
28988;SDS011;16089;59.952;10.818;2023-03-12T02:41:56;1.70;;;0.32;;
28988;SDS011;16089;59.952;10.818;2023-03-12T02:44:27;0.57;;;0.30;;
28988;SDS011;16089;59.952;10.818;2023-03-12T02:46:55;1.08;;;0.30;;
28988;SDS011;16089;59.952;10.818;2023-03-12T02:49:23;0.55;;;0.25;;
28988;SDS011;16089;59.952;10.818;2023-03-12T02:51:50;2.38;;;0.30;;
28988;SDS011;16089;59.952;10.818;2023-03-12T02:54:17;2.70;;;0.40;;
28988;SDS011;16089;59.952;10.818;2023-03-12T02:56:44;2.60;;;0.25;;
28988;SDS011;16089;59.952;10.818;2023-03-12T02:59:11;0.73;;;0.30;;
28988;SDS011;16089;59.952;10.818;2023-03-12T03:01:39;0.22;;;0.20;;
28988;SDS011;16089;59.952;10.818;2023-03-12T03:04:07;0.43;;;0.22;;
28988;SDS011;16089;59.952;10.818;2023-03-12T03:06:33;0.47;;;0.20;;
28988;SDS011;16089;59.952;10.818;2023-03-12T03:09:01;1.42;;;0.20;;
28988;SDS011;16089;59.952;10.818;2023-03-12T03:11:27;0.68;;;0.30;;
28988;SDS011;16089;59.952;10.818;2023-03-12T03:13:54;1.15;;;0.35;;
28988;SDS011;16089;59.952;10.818;2023-03-12T03:16:20;1.13;;;0.30;;
28988;SDS011;16089;59.952;10.818;2023-03-12T03:18:49;0.68;;;0.20;;
28988;SDS011;16089;59.952;10.818;2023-03-12T03:21:16;0.60;;;0.20;;
28988;SDS011;16089;59.952;10.818;2023-03-12T03:23:43;0.82;;;0.25;;
28988;SDS011;16089;59.952;10.818;2023-03-12T03:26:09;0.47;;;0.20;;
28988;SDS011;16089;59.952;10.818;2023-03-12T03:28:36;2.20;;;0.38;;
28988;SDS011;16089;59.952;10.818;2023-03-12T03:31:02;3.85;;;0.40;;
28988;SDS011;16089;59.952;10.818;2023-03-12T03:33:29;4.95;;;1.17;;
28988;SDS011;16089;59.952;10.818;2023-03-12T03:35:57;2.95;;;0.20;;
28988;SDS011;16089;59.952;10.818;2023-03-12T03:38:24;5.28;;;0.65;;
28988;SDS011;16089;59.952;10.818;2023-03-12T03:40:50;0.28;;;0.25;;
28988;SDS011;16089;59.952;10.818;2023-03-12T03:43:17;0.30;;;0.30;;
28988;SDS011;16089;59.952;10.818;2023-03-12T03:45:44;2.47;;;0.30;;
28988;SDS011;16089;59.952;10.818;2023-03-12T03:48:10;2.33;;;0.30;;
28988;SDS011;16089;59.952;10.818;2023-03-12T03:50:37;0.40;;;0.20;;
28988;SDS011;16089;59.952;10.818;2023-03-12T03:53:05;2.28;;;0.43;;
28988;SDS011;16089;59.952;10.818;2023-03-12T03:55:34;0.20;;;0.20;;
28988;SDS011;16089;59.952;10.818;2023-03-12T03:58:00;3.67;;;0.30;;
28988;SDS011;16089;59.952;10.818;2023-03-12T04:00:27;3.50;;;0.20;;
28988;SDS011;16089;59.952;10.818;2023-03-12T04:02:53;0.90;;;0.50;;
28988;SDS011;16089;59.952;10.818;2023-03-12T04:05:20;1.88;;;0.40;;
28988;SDS011;16089;59.952;10.818;2023-03-12T04:07:46;1.35;;;0.30;;
28988;SDS011;16089;59.952;10.818;2023-03-12T04:10:14;1.20;;;0.30;;
28988;SDS011;16089;59.952;10.818;2023-03-12T04:12:41;0.52;;;0.20;;
28988;SDS011;16089;59.952;10.818;2023-03-12T04:15:07;1.58;;;0.30;;
28988;SDS011;16089;59.952;10.818;2023-03-12T04:17:34;2.63;;;0.30;;
28988;SDS011;16089;59.952;10.818;2023-03-12T04:20:00;1.75;;;0.40;;
28988;SDS011;16089;59.952;10.818;2023-03-12T04:22:26;1.23;;;0.30;;
28988;SDS011;16089;59.952;10.818;2023-03-12T04:24:53;0.30;;;0.20;;
28988;SDS011;16089;59.952;10.818;2023-03-12T04:27:21;0.45;;;0.30;;
28988;SDS011;16089;59.952;10.818;2023-03-12T04:29:47;1.75;;;0.30;;
28988;SDS011;16089;59.952;10.818;2023-03-12T04:32:13;1.10;;;0.30;;
28988;SDS011;16089;59.952;10.818;2023-03-12T04:34:40;0.20;;;0.20;;
28988;SDS011;16089;59.952;10.818;2023-03-12T04:37:06;0.75;;;0.20;;
28988;SDS011;16089;59.952;10.818;2023-03-12T04:39:32;2.28;;;0.32;;
28988;SDS011;16089;59.952;10.818;2023-03-12T04:41:59;1.30;;;0.28;;
28988;SDS011;16089;59.952;10.818;2023-03-12T04:44:26;0.95;;;0.30;;
28988;SDS011;16089;59.952;10.818;2023-03-12T04:46:53;0.75;;;0.30;;
28988;SDS011;16089;59.952;10.818;2023-03-12T04:49:19;1.15;;;0.50;;
28988;SDS011;16089;59.952;10.818;2023-03-12T04:51:46;1.05;;;0.30;;
28988;SDS011;16089;59.952;10.818;2023-03-12T04:54:12;1.90;;;0.30;;
28988;SDS011;16089;59.952;10.818;2023-03-12T04:56:38;0.60;;;0.30;;
28988;SDS011;16089;59.952;10.818;2023-03-12T04:59:05;0.22;;;0.20;;
28988;SDS011;16089;59.952;10.818;2023-03-12T05:01:33;0.90;;;0.30;;
28988;SDS011;16089;59.952;10.818;2023-03-12T05:04:01;1.02;;;0.43;;
28988;SDS011;16089;59.952;10.818;2023-03-12T05:06:28;0.57;;;0.25;;
28988;SDS011;16089;59.952;10.818;2023-03-12T05:08:54;0.30;;;0.30;;
28988;SDS011;16089;59.952;10.818;2023-03-12T05:11:20;0.28;;;0.25;;
28988;SDS011;16089;59.952;10.818;2023-03-12T05:13:47;1.52;;;0.35;;
28988;SDS011;16089;59.952;10.818;2023-03-12T05:16:14;0.25;;;0.22;;
28988;SDS011;16089;59.952;10.818;2023-03-12T05:18:41;1.77;;;0.50;;
28988;SDS011;16089;59.952;10.818;2023-03-12T05:21:09;0.73;;;0.20;;
28988;SDS011;16089;59.952;10.818;2023-03-12T05:23:36;2.58;;;0.50;;
28988;SDS011;16089;59.952;10.818;2023-03-12T05:26:06;1.08;;;0.30;;
28988;SDS011;16089;59.952;10.818;2023-03-12T05:28:32;0.20;;;0.20;;
28988;SDS011;16089;59.952;10.818;2023-03-12T05:30:59;0.40;;;0.30;;
28988;SDS011;16089;59.952;10.818;2023-03-12T05:33:26;0.52;;;0.20;;
28988;SDS011;16089;59.952;10.818;2023-03-12T05:35:54;1.52;;;0.20;;
28988;SDS011;16089;59.952;10.818;2023-03-12T05:38:21;1.85;;;0.20;;
28988;SDS011;16089;59.952;10.818;2023-03-12T05:40:51;1.30;;;0.40;;
28988;SDS011;16089;59.952;10.818;2023-03-12T05:43:18;0.85;;;0.30;;
28988;SDS011;16089;59.952;10.818;2023-03-12T05:45:44;1.33;;;0.30;;
28988;SDS011;16089;59.952;10.818;2023-03-12T05:48:11;0.30;;;0.30;;
28988;SDS011;16089;59.952;10.818;2023-03-12T05:50:37;0.90;;;0.25;;
28988;SDS011;16089;59.952;10.818;2023-03-12T05:53:05;3.38;;;0.30;;
28988;SDS011;16089;59.952;10.818;2023-03-12T05:55:33;0.50;;;0.30;;
28988;SDS011;16089;59.952;10.818;2023-03-12T05:57:59;0.65;;;0.30;;
28988;SDS011;16089;59.952;10.818;2023-03-12T06:00:26;1.23;;;0.30;;
28988;SDS011;16089;59.952;10.818;2023-03-12T06:02:52;0.47;;;0.30;;
28988;SDS011;16089;59.952;10.818;2023-03-12T06:05:18;0.38;;;0.30;;
28988;SDS011;16089;59.952;10.818;2023-03-12T06:07:45;0.30;;;0.20;;
28988;SDS011;16089;59.952;10.818;2023-03-12T06:10:12;3.90;;;0.30;;
28988;SDS011;16089;59.952;10.818;2023-03-12T06:12:39;2.28;;;0.40;;
28988;SDS011;16089;59.952;10.818;2023-03-12T06:15:05;0.85;;;0.30;;
28988;SDS011;16089;59.952;10.818;2023-03-12T06:17:32;0.35;;;0.20;;
28988;SDS011;16089;59.952;10.818;2023-03-12T06:19:58;0.55;;;0.30;;
28988;SDS011;16089;59.952;10.818;2023-03-12T06:22:25;0.35;;;0.22;;
28988;SDS011;16089;59.952;10.818;2023-03-12T06:24:51;1.70;;;0.20;;
28988;SDS011;16089;59.952;10.818;2023-03-12T06:27:19;1.38;;;0.30;;
28988;SDS011;16089;59.952;10.818;2023-03-12T06:29:46;4.80;;;0.28;;
28988;SDS011;16089;59.952;10.818;2023-03-12T06:32:12;2.95;;;0.30;;
28988;SDS011;16089;59.952;10.818;2023-03-12T06:34:39;0.50;;;0.20;;
28988;SDS011;16089;59.952;10.818;2023-03-12T06:37:05;0.90;;;0.30;;
28988;SDS011;16089;59.952;10.818;2023-03-12T06:39:31;1.55;;;0.25;;
28988;SDS011;16089;59.952;10.818;2023-03-12T06:41:58;0.68;;;0.30;;
28988;SDS011;16089;59.952;10.818;2023-03-12T06:44:26;3.17;;;0.30;;
28988;SDS011;16089;59.952;10.818;2023-03-12T06:46:52;3.05;;;0.30;;
28988;SDS011;16089;59.952;10.818;2023-03-12T06:49:19;3.25;;;0.30;;
28988;SDS011;16089;59.952;10.818;2023-03-12T06:51:45;0.80;;;0.30;;
28988;SDS011;16089;59.952;10.818;2023-03-12T06:54:12;1.55;;;0.30;;
28988;SDS011;16089;59.952;10.818;2023-03-12T06:56:38;1.65;;;0.25;;
28988;SDS011;16089;59.952;10.818;2023-03-12T06:59:04;0.52;;;0.20;;
28988;SDS011;16089;59.952;10.818;2023-03-12T07:01:32;1.08;;;0.30;;
28988;SDS011;16089;59.952;10.818;2023-03-12T07:03:58;3.22;;;0.22;;
28988;SDS011;16089;59.952;10.818;2023-03-12T07:06:25;1.92;;;0.40;;
28988;SDS011;16089;59.952;10.818;2023-03-12T07:08:51;1.95;;;0.28;;
28988;SDS011;16089;59.952;10.818;2023-03-12T07:11:18;0.82;;;0.20;;
28988;SDS011;16089;59.952;10.818;2023-03-12T07:13:44;1.65;;;0.20;;
28988;SDS011;16089;59.952;10.818;2023-03-12T07:16:11;0.30;;;0.30;;
28988;SDS011;16089;59.952;10.818;2023-03-12T07:18:39;2.08;;;0.30;;
28988;SDS011;16089;59.952;10.818;2023-03-12T07:21:05;2.75;;;0.60;;
28988;SDS011;16089;59.952;10.818;2023-03-12T07:23:31;1.13;;;0.50;;
28988;SDS011;16089;59.952;10.818;2023-03-12T07:25:58;1.65;;;0.40;;
28988;SDS011;16089;59.952;10.818;2023-03-12T07:28:24;0.75;;;0.30;;
28988;SDS011;16089;59.952;10.818;2023-03-12T07:30:51;0.90;;;0.20;;
28988;SDS011;16089;59.952;10.818;2023-03-12T07:33:18;0.30;;;0.25;;
28988;SDS011;16089;59.952;10.818;2023-03-12T07:35:47;1.75;;;0.30;;
28988;SDS011;16089;59.952;10.818;2023-03-12T07:38:13;3.60;;;1.05;;
28988;SDS011;16089;59.952;10.818;2023-03-12T07:40:40;0.90;;;0.30;;
28988;SDS011;16089;59.952;10.818;2023-03-12T07:43:06;1.65;;;0.40;;
28988;SDS011;16089;59.952;10.818;2023-03-12T07:45:35;2.13;;;0.40;;
28988;SDS011;16089;59.952;10.818;2023-03-12T07:48:01;4.60;;;0.73;;
28988;SDS011;16089;59.952;10.818;2023-03-12T07:50:28;2.78;;;0.80;;
28988;SDS011;16089;59.952;10.818;2023-03-12T07:52:55;4.63;;;0.90;;
28988;SDS011;16089;59.952;10.818;2023-03-12T07:55:22;6.63;;;1.20;;
28988;SDS011;16089;59.952;10.818;2023-03-12T07:57:48;4.00;;;1.17;;
28988;SDS011;16089;59.952;10.818;2023-03-12T08:00:15;4.10;;;1.55;;
28988;SDS011;16089;59.952;10.818;2023-03-12T08:02:42;4.45;;;1.60;;
28988;SDS011;16089;59.952;10.818;2023-03-12T08:05:08;6.18;;;1.50;;
28988;SDS011;16089;59.952;10.818;2023-03-12T08:07:35;3.03;;;1.13;;
28988;SDS011;16089;59.952;10.818;2023-03-12T08:10:04;4.03;;;0.90;;
28988;SDS011;16089;59.952;10.818;2023-03-12T08:12:31;3.80;;;1.20;;
28988;SDS011;16089;59.952;10.818;2023-03-12T08:14:58;7.68;;;1.63;;
28988;SDS011;16089;59.952;10.818;2023-03-12T08:17:24;5.30;;;1.85;;
28988;SDS011;16089;59.952;10.818;2023-03-12T08:19:50;3.83;;;1.75;;
28988;SDS011;16089;59.952;10.818;2023-03-12T08:22:17;10.70;;;1.20;;
28988;SDS011;16089;59.952;10.818;2023-03-12T08:24:43;2.40;;;0.90;;
28988;SDS011;16089;59.952;10.818;2023-03-12T08:27:11;2.65;;;0.88;;
28988;SDS011;16089;59.952;10.818;2023-03-12T08:29:37;3.10;;;0.90;;
28988;SDS011;16089;59.952;10.818;2023-03-12T08:32:07;4.57;;;1.00;;
28988;SDS011;16089;59.952;10.818;2023-03-12T08:34:36;3.10;;;0.93;;
28988;SDS011;16089;59.952;10.818;2023-03-12T08:37:03;5.28;;;1.30;;
28988;SDS011;16089;59.952;10.818;2023-03-12T08:39:29;5.15;;;1.00;;
28988;SDS011;16089;59.952;10.818;2023-03-12T08:41:58;3.25;;;1.00;;
28988;SDS011;16089;59.952;10.818;2023-03-12T08:44:26;4.75;;;0.95;;
28988;SDS011;16089;59.952;10.818;2023-03-12T08:46:52;4.38;;;0.90;;
28988;SDS011;16089;59.952;10.818;2023-03-12T08:49:19;1.23;;;0.55;;
28988;SDS011;16089;59.952;10.818;2023-03-12T08:51:46;3.17;;;1.25;;
28988;SDS011;16089;59.952;10.818;2023-03-12T08:54:12;2.83;;;0.77;;
28988;SDS011;16089;59.952;10.818;2023-03-12T08:56:38;4.47;;;0.82;;
28988;SDS011;16089;59.952;10.818;2023-03-12T08:59:07;3.15;;;0.57;;
28988;SDS011;16089;59.952;10.818;2023-03-12T09:01:35;8.95;;;1.50;;
28988;SDS011;16089;59.952;10.818;2023-03-12T09:04:02;2.88;;;0.80;;
28988;SDS011;16089;59.952;10.818;2023-03-12T09:06:31;4.90;;;1.02;;
28988;SDS011;16089;59.952;10.818;2023-03-12T09:08:59;7.75;;;1.10;;
28988;SDS011;16089;59.952;10.818;2023-03-12T09:11:29;9.35;;;1.20;;
28988;SDS011;16089;59.952;10.818;2023-03-12T09:13:55;8.20;;;1.58;;
28988;SDS011;16089;59.952;10.818;2023-03-12T09:16:21;7.28;;;2.70;;
28988;SDS011;16089;59.952;10.818;2023-03-12T09:18:49;3.60;;;1.30;;
28988;SDS011;16089;59.952;10.818;2023-03-12T09:21:16;4.78;;;1.08;;
28988;SDS011;16089;59.952;10.818;2023-03-12T09:23:42;3.47;;;0.80;;
28988;SDS011;16089;59.952;10.818;2023-03-12T09:26:08;10.90;;;1.05;;
28988;SDS011;16089;59.952;10.818;2023-03-12T09:28:35;6.15;;;1.00;;
28988;SDS011;16089;59.952;10.818;2023-03-12T09:31:01;4.15;;;1.05;;
28988;SDS011;16089;59.952;10.818;2023-03-12T09:33:28;4.70;;;0.90;;
28988;SDS011;16089;59.952;10.818;2023-03-12T09:35:56;2.63;;;0.80;;
28988;SDS011;16089;59.952;10.818;2023-03-12T09:38:22;12.88;;;2.15;;
28988;SDS011;16089;59.952;10.818;2023-03-12T09:40:49;9.70;;;2.70;;
28988;SDS011;16089;59.952;10.818;2023-03-12T09:43:17;6.53;;;1.40;;
28988;SDS011;16089;59.952;10.818;2023-03-12T09:45:45;7.30;;;0.90;;
28988;SDS011;16089;59.952;10.818;2023-03-12T09:48:13;2.17;;;0.93;;
28988;SDS011;16089;59.952;10.818;2023-03-12T09:50:40;8.52;;;1.55;;
28988;SDS011;16089;59.952;10.818;2023-03-12T09:53:10;7.53;;;1.10;;
28988;SDS011;16089;59.952;10.818;2023-03-12T09:55:37;2.92;;;0.63;;
28988;SDS011;16089;59.952;10.818;2023-03-12T09:58:08;3.33;;;0.95;;
28988;SDS011;16089;59.952;10.818;2023-03-12T10:00:35;6.03;;;1.00;;
28988;SDS011;16089;59.952;10.818;2023-03-12T10:05:46;5.07;;;0.93;;
28988;SDS011;16089;59.952;10.818;2023-03-12T10:08:22;19.02;;;1.58;;
28988;SDS011;16089;59.952;10.818;2023-03-12T10:10:51;3.67;;;0.70;;
28988;SDS011;16089;59.952;10.818;2023-03-12T10:13:32;6.53;;;0.93;;
28988;SDS011;16089;59.952;10.818;2023-03-12T10:16:03;2.55;;;0.90;;
28988;SDS011;16089;59.952;10.818;2023-03-12T10:18:34;3.78;;;1.38;;
28988;SDS011;16089;59.952;10.818;2023-03-12T10:21:06;3.70;;;1.02;;
28988;SDS011;16089;59.952;10.818;2023-03-12T10:23:40;3.20;;;0.80;;
28988;SDS011;16089;59.952;10.818;2023-03-12T10:26:11;2.83;;;0.80;;
28988;SDS011;16089;59.952;10.818;2023-03-12T10:28:39;2.58;;;0.70;;
28988;SDS011;16089;59.952;10.818;2023-03-12T10:31:09;0.95;;;0.40;;
28988;SDS011;16089;59.952;10.818;2023-03-12T10:33:40;2.53;;;0.60;;
28988;SDS011;16089;59.952;10.818;2023-03-12T10:36:17;1.35;;;0.40;;
28988;SDS011;16089;59.952;10.818;2023-03-12T10:38:46;4.28;;;0.75;;
28988;SDS011;16089;59.952;10.818;2023-03-12T10:41:14;5.25;;;0.95;;
28988;SDS011;16089;59.952;10.818;2023-03-12T10:43:41;7.50;;;1.10;;
28988;SDS011;16089;59.952;10.818;2023-03-12T10:46:14;2.95;;;0.77;;
28988;SDS011;16089;59.952;10.818;2023-03-12T10:48:41;4.03;;;0.80;;
28988;SDS011;16089;59.952;10.818;2023-03-12T10:51:09;5.45;;;0.90;;
28988;SDS011;16089;59.952;10.818;2023-03-12T10:53:36;4.03;;;0.80;;
28988;SDS011;16089;59.952;10.818;2023-03-12T10:56:06;4.32;;;0.57;;
28988;SDS011;16089;59.952;10.818;2023-03-12T10:58:34;3.90;;;0.80;;
28988;SDS011;16089;59.952;10.818;2023-03-12T11:01:01;2.92;;;0.80;;
28988;SDS011;16089;59.952;10.818;2023-03-12T11:03:28;1.35;;;0.50;;
28988;SDS011;16089;59.952;10.818;2023-03-12T11:05:55;2.30;;;1.08;;
28988;SDS011;16089;59.952;10.818;2023-03-12T11:08:22;7.25;;;0.88;;
28988;SDS011;16089;59.952;10.818;2023-03-12T11:10:51;4.45;;;0.60;;
28988;SDS011;16089;59.952;10.818;2023-03-12T11:13:23;2.40;;;0.90;;
28988;SDS011;16089;59.952;10.818;2023-03-12T11:15:50;5.85;;;1.13;;
28988;SDS011;16089;59.952;10.818;2023-03-12T11:18:18;5.72;;;0.70;;
28988;SDS011;16089;59.952;10.818;2023-03-12T11:20:45;3.78;;;0.80;;
28988;SDS011;16089;59.952;10.818;2023-03-12T11:23:12;6.22;;;0.80;;
28988;SDS011;16089;59.952;10.818;2023-03-12T11:25:39;5.75;;;0.77;;
28988;SDS011;16089;59.952;10.818;2023-03-12T11:28:05;1.95;;;0.60;;
28988;SDS011;16089;59.952;10.818;2023-03-12T11:30:37;5.57;;;0.80;;
28988;SDS011;16089;59.952;10.818;2023-03-12T11:33:04;4.05;;;1.00;;
28988;SDS011;16089;59.952;10.818;2023-03-12T11:35:32;1.67;;;0.50;;
28988;SDS011;16089;59.952;10.818;2023-03-12T11:38:06;4.60;;;0.55;;
28988;SDS011;16089;59.952;10.818;2023-03-12T11:40:42;2.05;;;0.40;;
28988;SDS011;16089;59.952;10.818;2023-03-12T11:43:18;2.22;;;1.00;;
28988;SDS011;16089;59.952;10.818;2023-03-12T11:45:51;5.32;;;1.20;;
28988;SDS011;16089;59.952;10.818;2023-03-12T11:48:21;4.03;;;0.70;;
28988;SDS011;16089;59.952;10.818;2023-03-12T11:50:53;12.00;;;1.13;;
28988;SDS011;16089;59.952;10.818;2023-03-12T11:53:25;3.05;;;0.60;;
28988;SDS011;16089;59.952;10.818;2023-03-12T11:55:56;3.55;;;0.80;;
28988;SDS011;16089;59.952;10.818;2023-03-12T11:58:29;3.33;;;0.63;;
28988;SDS011;16089;59.952;10.818;2023-03-12T12:01:03;3.50;;;0.65;;
28988;SDS011;16089;59.952;10.818;2023-03-12T12:06:15;3.75;;;1.00;;
28988;SDS011;16089;59.952;10.818;2023-03-12T12:08:51;3.55;;;0.95;;
28988;SDS011;16089;59.952;10.818;2023-03-12T12:11:23;3.90;;;0.98;;
28988;SDS011;16089;59.952;10.818;2023-03-12T12:13:56;17.90;;;2.42;;
28988;SDS011;16089;59.952;10.818;2023-03-12T12:16:29;5.45;;;1.30;;
28988;SDS011;16089;59.952;10.818;2023-03-12T12:19:04;4.30;;;1.30;;
28988;SDS011;16089;59.952;10.818;2023-03-12T12:21:41;11.38;;;1.30;;
28988;SDS011;16089;59.952;10.818;2023-03-12T12:24:13;12.63;;;1.05;;
28988;SDS011;16089;59.952;10.818;2023-03-12T12:26:43;11.05;;;1.80;;
28988;SDS011;16089;59.952;10.818;2023-03-12T12:29:15;3.00;;;0.70;;
28988;SDS011;16089;59.952;10.818;2023-03-12T12:31:47;13.27;;;1.30;;
28988;SDS011;16089;59.952;10.818;2023-03-12T12:34:25;18.00;;;1.48;;
28988;SDS011;16089;59.952;10.818;2023-03-12T12:36:56;7.88;;;1.30;;
28988;SDS011;16089;59.952;10.818;2023-03-12T12:39:26;4.30;;;0.98;;
28988;SDS011;16089;59.952;10.818;2023-03-12T12:41:55;4.13;;;0.70;;
28988;SDS011;16089;59.952;10.818;2023-03-12T12:44:22;1.38;;;0.50;;
28988;SDS011;16089;59.952;10.818;2023-03-12T12:46:52;5.40;;;0.70;;
28988;SDS011;16089;59.952;10.818;2023-03-12T12:49:21;4.68;;;0.70;;
28988;SDS011;16089;59.952;10.818;2023-03-12T12:51:50;5.72;;;0.80;;
28988;SDS011;16089;59.952;10.818;2023-03-12T12:54:19;5.97;;;0.73;;
28988;SDS011;16089;59.952;10.818;2023-03-12T12:56:49;1.73;;;0.50;;
28988;SDS011;16089;59.952;10.818;2023-03-12T12:59:23;3.47;;;0.55;;
28988;SDS011;16089;59.952;10.818;2023-03-12T13:01:52;5.50;;;0.50;;
28988;SDS011;16089;59.952;10.818;2023-03-12T13:04:22;1.23;;;0.70;;
28988;SDS011;16089;59.952;10.818;2023-03-12T13:06:53;2.53;;;0.68;;
28988;SDS011;16089;59.952;10.818;2023-03-12T13:09:20;10.18;;;1.08;;
28988;SDS011;16089;59.952;10.818;2023-03-12T13:11:47;9.18;;;0.80;;
28988;SDS011;16089;59.952;10.818;2023-03-12T13:14:20;7.00;;;0.90;;
28988;SDS011;16089;59.952;10.818;2023-03-12T13:16:47;7.05;;;1.00;;
28988;SDS011;16089;59.952;10.818;2023-03-12T13:19:23;4.28;;;0.50;;
28988;SDS011;16089;59.952;10.818;2023-03-12T13:21:52;2.95;;;0.60;;
28988;SDS011;16089;59.952;10.818;2023-03-12T13:24:21;12.55;;;1.30;;
28988;SDS011;16089;59.952;10.818;2023-03-12T13:26:52;7.57;;;1.10;;
28988;SDS011;16089;59.952;10.818;2023-03-12T13:29:21;7.57;;;1.00;;
28988;SDS011;16089;59.952;10.818;2023-03-12T13:31:48;13.40;;;1.52;;
28988;SDS011;16089;59.952;10.818;2023-03-12T13:34:40;7.38;;;1.73;;
28988;SDS011;16089;59.952;10.818;2023-03-12T13:37:16;4.70;;;1.17;;
28988;SDS011;16089;59.952;10.818;2023-03-12T13:39:43;6.15;;;1.23;;
28988;SDS011;16089;59.952;10.818;2023-03-12T13:44:54;11.20;;;2.00;;
28988;SDS011;16089;59.952;10.818;2023-03-12T13:47:20;13.85;;;2.10;;
28988;SDS011;16089;59.952;10.818;2023-03-12T13:49:52;18.30;;;1.85;;
28988;SDS011;16089;59.952;10.818;2023-03-12T13:52:20;4.93;;;0.93;;
28988;SDS011;16089;59.952;10.818;2023-03-12T13:54:48;11.13;;;1.25;;
28988;SDS011;16089;59.952;10.818;2023-03-12T13:57:24;1.70;;;0.60;;
28988;SDS011;16089;59.952;10.818;2023-03-12T13:59:51;3.95;;;0.82;;
28988;SDS011;16089;59.952;10.818;2023-03-12T14:02:19;2.45;;;0.50;;
28988;SDS011;16089;59.952;10.818;2023-03-12T14:04:47;15.45;;;0.98;;
28988;SDS011;16089;59.952;10.818;2023-03-12T14:07:22;8.57;;;0.88;;
28988;SDS011;16089;59.952;10.818;2023-03-12T14:09:54;11.70;;;1.45;;
28988;SDS011;16089;59.952;10.818;2023-03-12T14:12:25;6.70;;;0.93;;
28988;SDS011;16089;59.952;10.818;2023-03-12T14:15:15;8.50;;;1.33;;
28988;SDS011;16089;59.952;10.818;2023-03-12T14:17:43;7.53;;;1.00;;
28988;SDS011;16089;59.952;10.818;2023-03-12T14:20:11;5.18;;;0.85;;
28988;SDS011;16089;59.952;10.818;2023-03-12T14:22:42;8.35;;;1.25;;
28988;SDS011;16089;59.952;10.818;2023-03-12T14:25:11;3.25;;;1.08;;
28988;SDS011;16089;59.952;10.818;2023-03-12T14:27:38;1.83;;;0.60;;
28988;SDS011;16089;59.952;10.818;2023-03-12T14:30:09;5.00;;;1.00;;
28988;SDS011;16089;59.952;10.818;2023-03-12T14:32:36;6.35;;;0.65;;
28988;SDS011;16089;59.952;10.818;2023-03-12T14:35:07;12.68;;;1.95;;
28988;SDS011;16089;59.952;10.818;2023-03-12T14:37:39;8.25;;;1.17;;
28988;SDS011;16089;59.952;10.818;2023-03-12T14:40:11;4.68;;;0.80;;
28988;SDS011;16089;59.952;10.818;2023-03-12T14:42:43;3.33;;;0.90;;
28988;SDS011;16089;59.952;10.818;2023-03-12T14:45:10;3.38;;;0.77;;
28988;SDS011;16089;59.952;10.818;2023-03-12T14:47:40;4.07;;;0.80;;
28988;SDS011;16089;59.952;10.818;2023-03-12T14:50:15;32.15;;;7.93;;